createdAt,value
2017-11-21T00:00:00.319Z,1.91
2017-11-21T00:02:27.778Z,1.85
2017-11-21T00:04:55.265Z,1.99
2017-11-21T00:07:22.760Z,2.00
2017-11-21T00:09:50.215Z,2.05
2017-11-21T00:12:17.669Z,1.93
2017-11-21T00:14:45.369Z,1.83
2017-11-21T00:17:12.834Z,1.82
2017-11-21T00:19:40.298Z,1.95
2017-11-21T00:22:07.793Z,1.97
2017-11-21T00:24:35.273Z,1.90
2017-11-21T00:27:02.750Z,1.89
2017-11-21T00:29:30.233Z,1.94
2017-11-21T00:31:57.714Z,1.94
2017-11-21T00:34:25.356Z,1.87
2017-11-21T00:36:52.813Z,1.95
2017-11-21T00:39:20.278Z,1.94
2017-11-21T00:41:47.754Z,1.97
2017-11-21T00:44:15.221Z,2.01
2017-11-21T00:46:42.707Z,2.15
2017-11-21T00:49:10.170Z,2.06
2017-11-21T00:51:37.646Z,2.03
2017-11-21T00:54:05.096Z,2.06
2017-11-21T00:56:32.583Z,2.03
2017-11-21T00:59:00.046Z,2.07
2017-11-21T01:01:27.532Z,2.15
2017-11-21T01:03:55.024Z,2.41
2017-11-21T01:06:22.510Z,2.29
2017-11-21T01:08:49.970Z,2.32
2017-11-21T01:11:17.459Z,2.22
2017-11-21T01:13:44.952Z,2.39
2017-11-21T01:16:12.419Z,2.37
2017-11-21T01:18:39.922Z,2.61
2017-11-21T01:21:07.384Z,2.62
2017-11-21T01:23:34.835Z,2.59
2017-11-21T01:26:02.323Z,2.71
2017-11-21T01:28:29.800Z,2.72
2017-11-21T01:30:57.276Z,2.70
2017-11-21T01:33:24.742Z,2.67
2017-11-21T01:35:52.218Z,2.61
2017-11-21T01:38:19.714Z,2.65
2017-11-21T01:40:47.158Z,2.69
2017-11-21T01:43:14.635Z,2.74
2017-11-21T01:45:42.083Z,2.59
2017-11-21T01:48:09.528Z,2.83
2017-11-21T01:50:37.000Z,2.79
2017-11-21T01:53:04.444Z,2.78
2017-11-21T01:55:31.910Z,2.82
2017-11-21T01:57:59.355Z,2.84
2017-11-21T02:00:26.848Z,2.90
2017-11-21T02:03:04.954Z,2.91
2017-11-21T02:05:32.430Z,2.95
2017-11-21T02:07:59.892Z,2.93
2017-11-21T02:10:27.341Z,2.99
2017-11-21T02:12:54.813Z,3.04
2017-11-21T02:15:22.292Z,2.99
2017-11-21T02:17:49.746Z,3.02
2017-11-21T02:20:17.350Z,3.00
2017-11-21T02:22:44.805Z,2.90
2017-11-21T02:25:12.282Z,3.08
2017-11-21T02:27:39.735Z,2.96
2017-11-21T02:30:07.222Z,3.06
2017-11-21T02:32:34.677Z,3.04
2017-11-21T02:35:02.160Z,3.13
2017-11-21T02:37:30.018Z,2.90
2017-11-21T02:39:57.472Z,2.87
2017-11-21T02:42:24.926Z,2.81
2017-11-21T02:44:52.407Z,2.82
2017-11-21T02:47:19.874Z,2.74
2017-11-21T02:49:47.346Z,2.69
2017-11-21T02:52:14.803Z,2.75
2017-11-21T02:54:42.284Z,2.69
2017-11-21T02:57:09.734Z,2.67
2017-11-21T02:59:37.212Z,2.69
2017-11-21T03:02:04.986Z,2.60
2017-11-21T03:04:32.447Z,2.66
2017-11-21T03:06:59.918Z,2.62
2017-11-21T03:09:27.404Z,2.60
2017-11-21T03:11:54.860Z,2.59
2017-11-21T03:14:22.354Z,2.54
2017-11-21T03:16:49.804Z,2.61
2017-11-21T03:19:17.251Z,2.63
2017-11-21T03:21:56.466Z,2.69
2017-11-21T03:24:35.612Z,2.65
2017-11-21T03:27:11.776Z,2.62
2017-11-21T03:29:39.230Z,2.57
2017-11-21T03:32:06.725Z,2.60
2017-11-21T03:34:34.187Z,2.55
2017-11-21T03:37:01.672Z,2.49
2017-11-21T03:39:29.161Z,2.50
2017-11-21T03:41:56.640Z,2.54
2017-11-21T03:44:24.100Z,2.56
2017-11-21T03:46:51.570Z,2.52
2017-11-21T03:49:19.054Z,2.53
2017-11-21T03:51:46.515Z,2.54
2017-11-21T03:54:14.003Z,2.54
2017-11-21T03:56:41.471Z,2.57
2017-11-21T03:59:08.953Z,2.58
2017-11-21T04:01:36.401Z,2.60
2017-11-21T04:04:03.878Z,2.60
2017-11-21T04:06:31.331Z,2.63
2017-11-21T04:08:58.795Z,2.65
2017-11-21T04:11:26.277Z,2.72
2017-11-21T04:13:53.737Z,2.79
2017-11-21T04:16:21.233Z,2.78
2017-11-21T04:18:48.715Z,2.78
2017-11-21T04:21:16.167Z,2.82
2017-11-21T04:23:43.662Z,2.85
2017-11-21T04:26:11.122Z,2.93
2017-11-21T04:28:38.591Z,2.92
2017-11-21T04:31:06.073Z,2.88
2017-11-21T04:33:33.563Z,2.91
2017-11-21T04:36:01.025Z,3.00
2017-11-21T04:38:28.502Z,2.97
2017-11-21T04:40:55.962Z,3.00
2017-11-21T04:43:23.439Z,3.05
2017-11-21T04:45:50.920Z,3.08
2017-11-21T04:48:18.382Z,3.09
2017-11-21T04:50:45.878Z,3.15
2017-11-21T04:53:13.342Z,3.17
2017-11-21T04:55:40.804Z,3.19
2017-11-21T04:58:08.296Z,3.22
2017-11-21T05:00:35.937Z,3.27
2017-11-21T05:03:03.417Z,3.28
2017-11-21T05:05:30.886Z,3.29
2017-11-21T05:07:58.360Z,3.32
2017-11-21T05:10:25.819Z,3.36
2017-11-21T05:12:53.308Z,3.39
2017-11-21T05:15:20.776Z,3.40
2017-11-21T05:17:48.246Z,3.43
2017-11-21T05:20:15.729Z,3.45
2017-11-21T05:22:43.228Z,3.43
2017-11-21T05:25:10.698Z,3.43
2017-11-21T05:27:38.158Z,3.46
2017-11-21T05:30:05.646Z,3.48
2017-11-21T05:32:45.148Z,3.54
2017-11-21T05:35:12.647Z,3.54
2017-11-21T05:37:40.113Z,3.56
2017-11-21T05:40:07.594Z,3.67
2017-11-21T05:42:35.056Z,3.67
2017-11-21T05:45:02.547Z,3.74
2017-11-21T05:47:30.032Z,3.77
2017-11-21T05:49:57.712Z,3.85
2017-11-21T05:52:25.173Z,3.82
2017-11-21T05:54:52.658Z,3.84
2017-11-21T05:57:20.121Z,3.87
2017-11-21T05:59:47.591Z,3.84
2017-11-21T06:02:15.053Z,3.86
2017-11-21T06:04:42.524Z,3.95
2017-11-21T06:07:09.981Z,3.85
2017-11-21T06:09:37.471Z,3.84
2017-11-21T06:12:04.935Z,3.83
2017-11-21T06:14:32.400Z,3.85
2017-11-21T06:16:59.887Z,3.86
2017-11-21T06:19:27.353Z,3.83
2017-11-21T06:21:54.836Z,3.90
2017-11-21T06:24:23.181Z,3.97
2017-11-21T06:26:50.634Z,4.01
2017-11-21T06:29:18.107Z,4.03
2017-11-21T06:31:45.587Z,4.21
2017-11-21T06:34:13.071Z,4.26
2017-11-21T06:36:40.535Z,4.34
2017-11-21T06:39:08.022Z,4.34
2017-11-21T06:41:35.487Z,4.38
2017-11-21T06:44:02.956Z,4.49
2017-11-21T06:46:30.448Z,4.60
2017-11-21T06:48:57.915Z,4.82
2017-11-21T06:51:25.401Z,4.99
2017-11-21T06:53:52.882Z,5.04
2017-11-21T06:56:20.336Z,5.13
2017-11-21T06:58:47.831Z,5.16
2017-11-21T07:01:15.291Z,5.16
2017-11-21T07:03:42.746Z,5.19
2017-11-21T07:06:10.226Z,5.21
2017-11-21T07:08:37.718Z,5.24
2017-11-21T07:11:05.186Z,5.20
2017-11-21T07:13:32.833Z,5.22
2017-11-21T07:16:00.292Z,5.22
2017-11-21T07:18:27.746Z,5.23
2017-11-21T07:20:55.246Z,5.87
2017-11-21T07:23:22.735Z,6.22
2017-11-21T07:25:50.220Z,5.38
2017-11-21T07:28:17.716Z,5.33
2017-11-21T07:30:45.181Z,5.31
2017-11-21T07:33:12.650Z,5.34
2017-11-21T07:35:40.127Z,5.37
2017-11-21T07:38:07.590Z,5.47
2017-11-21T07:40:35.074Z,5.47
2017-11-21T07:43:02.551Z,5.59
2017-11-21T07:45:30.000Z,5.62
2017-11-21T07:47:57.480Z,5.67
2017-11-21T07:50:24.937Z,5.68
2017-11-21T07:52:52.471Z,5.72
2017-11-21T07:55:19.929Z,5.80
2017-11-21T07:57:47.387Z,5.79
2017-11-21T08:00:14.870Z,5.83
2017-11-21T08:02:42.339Z,5.88
2017-11-21T08:05:09.816Z,6.02
2017-11-21T08:07:37.316Z,6.00
2017-11-21T08:10:05.038Z,6.10
2017-11-21T08:12:32.497Z,6.14
2017-11-21T08:14:59.966Z,6.18
2017-11-21T08:17:27.457Z,6.26
2017-11-21T08:19:54.915Z,6.24
2017-11-21T08:22:22.399Z,6.20
2017-11-21T08:24:49.858Z,6.26
2017-11-21T08:27:17.315Z,6.27
2017-11-21T08:29:44.790Z,6.23
2017-11-21T08:32:12.255Z,6.29
2017-11-21T08:34:39.739Z,6.29
2017-11-21T08:37:07.182Z,6.41
2017-11-21T08:39:34.655Z,6.39
2017-11-21T08:42:02.122Z,6.37
2017-11-21T08:44:29.579Z,6.43
2017-11-21T08:46:57.055Z,6.41
2017-11-21T08:49:24.518Z,6.46
2017-11-21T08:51:51.966Z,6.42
2017-11-21T08:54:19.455Z,6.40
2017-11-21T08:56:46.922Z,6.42
2017-11-21T08:59:14.397Z,6.37
2017-11-21T09:01:41.858Z,6.43
2017-11-21T09:04:09.334Z,6.45
2017-11-21T09:06:36.786Z,6.53
2017-11-21T09:09:04.264Z,6.64
2017-11-21T09:11:31.717Z,6.68
2017-11-21T09:13:59.199Z,6.62
2017-11-21T09:16:26.839Z,6.80
2017-11-21T09:18:54.299Z,6.84
2017-11-21T09:21:21.771Z,6.86
2017-11-21T09:23:49.218Z,6.95
2017-11-21T09:26:16.697Z,7.08
2017-11-21T09:28:44.163Z,7.14
2017-11-21T09:31:11.662Z,7.18
2017-11-21T09:33:39.126Z,7.15
2017-11-21T09:36:06.622Z,7.17
2017-11-21T09:38:34.076Z,7.23
2017-11-21T09:41:01.523Z,7.16
2017-11-21T09:43:29.006Z,7.19
2017-11-21T09:45:56.459Z,7.23
2017-11-21T09:48:23.934Z,7.25
2017-11-21T09:50:51.386Z,7.22
2017-11-21T10:00:01.921Z,7.39
2017-11-21T10:02:29.374Z,7.33
2017-11-21T10:04:56.996Z,7.35
2017-11-21T10:07:24.503Z,7.40
2017-11-21T10:09:51.963Z,7.33
2017-11-21T10:12:19.414Z,7.40
2017-11-21T10:14:46.886Z,7.36
2017-11-21T10:17:14.328Z,7.34
2017-11-21T10:19:41.792Z,7.36
2017-11-21T10:22:09.292Z,7.40
2017-11-21T10:24:36.771Z,7.38
2017-11-21T10:27:04.225Z,7.35
2017-11-21T10:29:31.698Z,7.38
2017-11-21T10:31:59.155Z,7.35
2017-11-21T10:34:26.629Z,7.43
2017-11-21T10:36:54.083Z,7.44
2017-11-21T10:39:21.554Z,7.41
2017-11-21T10:41:49.063Z,7.47
2017-11-21T10:44:16.535Z,7.48
2017-11-21T10:46:43.982Z,7.50
2017-11-21T10:49:11.449Z,7.52
2017-11-21T10:51:38.894Z,7.52
2017-11-21T10:54:06.361Z,7.51
2017-11-21T10:56:33.832Z,7.45
2017-11-21T10:59:01.290Z,7.41
2017-11-21T11:01:28.767Z,7.54
2017-11-21T11:03:56.221Z,7.62
2017-11-21T11:06:23.695Z,7.63
2017-11-21T11:08:51.175Z,7.59
2017-11-21T11:11:18.628Z,7.62
2017-11-21T11:13:46.080Z,7.49
2017-11-21T11:16:13.555Z,7.50
2017-11-21T11:18:41.016Z,7.41
2017-11-21T11:21:08.487Z,7.44
2017-11-21T11:23:35.940Z,7.40
2017-11-21T11:26:03.442Z,7.47
2017-11-21T11:28:30.955Z,7.51
2017-11-21T11:30:58.427Z,7.46
2017-11-21T11:33:25.883Z,7.43
2017-11-21T11:35:53.359Z,7.41
2017-11-21T11:38:20.835Z,7.39
2017-11-21T11:40:48.279Z,7.42
2017-11-21T11:43:15.761Z,7.44
2017-11-21T11:45:43.218Z,7.42
2017-11-21T11:48:10.697Z,7.54
2017-11-21T11:50:38.142Z,7.54
2017-11-21T11:53:05.625Z,7.56
2017-11-21T11:55:33.082Z,7.64
2017-11-21T11:58:00.544Z,7.64
2017-11-21T12:00:28.016Z,7.71
2017-11-21T12:02:55.503Z,7.76
2017-11-21T12:05:22.967Z,7.65
2017-11-21T12:07:50.421Z,7.62
2017-11-21T12:10:17.989Z,7.62
2017-11-21T12:12:45.479Z,7.61
2017-11-21T12:15:12.986Z,7.58
2017-11-21T12:17:40.493Z,7.66
2017-11-21T12:20:07.945Z,7.55
2017-11-21T12:22:35.434Z,7.58
2017-11-21T12:25:02.913Z,7.57
2017-11-21T12:27:30.411Z,7.59
2017-11-21T12:29:57.920Z,7.62
2017-11-21T12:32:25.387Z,7.59
2017-11-21T12:34:52.877Z,7.67
2017-11-21T12:37:20.322Z,7.61
2017-11-21T12:39:47.797Z,7.68
2017-11-21T12:42:15.322Z,7.59
2017-11-21T12:44:43.159Z,7.66
2017-11-21T12:47:10.628Z,7.54
2017-11-21T12:49:38.094Z,7.56
2017-11-21T12:52:05.574Z,7.63
2017-11-21T12:54:33.059Z,7.56
2017-11-21T12:57:00.511Z,7.63
2017-11-21T12:59:28.007Z,7.65
2017-11-21T13:01:55.462Z,7.67
2017-11-21T13:04:22.937Z,7.69
2017-11-21T13:06:50.411Z,7.72
2017-11-21T13:09:17.887Z,7.67
2017-11-21T13:11:45.370Z,7.69
2017-11-21T13:14:12.835Z,7.68
2017-11-21T13:16:40.329Z,7.69
2017-11-21T13:19:07.792Z,7.70
2017-11-21T13:21:35.254Z,7.72
2017-11-21T13:24:02.810Z,7.69
2017-11-21T13:26:30.311Z,7.72
2017-11-21T13:28:57.781Z,7.66
2017-11-21T13:31:25.477Z,7.66
2017-11-21T13:33:52.954Z,7.75
2017-11-21T13:36:20.411Z,7.75
2017-11-21T13:38:47.898Z,7.70
2017-11-21T13:41:15.350Z,7.67
2017-11-21T13:43:42.867Z,7.70
2017-11-21T13:46:10.320Z,7.72
2017-11-21T13:48:37.794Z,7.73
2017-11-21T13:51:05.276Z,7.80
2017-11-21T13:53:32.750Z,7.73
2017-11-21T13:56:00.202Z,7.77
2017-11-21T13:58:28.081Z,7.87
2017-11-21T14:00:55.609Z,7.80
2017-11-21T14:03:23.059Z,7.86
2017-11-21T14:05:50.767Z,7.97
2017-11-21T14:08:18.231Z,8.05
2017-11-21T14:10:45.687Z,8.07
2017-11-21T14:13:13.162Z,8.05
2017-11-21T14:15:40.622Z,8.05
2017-11-21T14:18:08.101Z,8.04
2017-11-21T14:20:35.551Z,7.98
2017-11-21T14:23:03.027Z,7.91
2017-11-21T14:25:30.469Z,7.96
2017-11-21T14:27:57.954Z,7.95
2017-11-21T14:30:25.404Z,7.94
2017-11-21T14:32:53.777Z,7.99
2017-11-21T14:35:21.223Z,7.90
2017-11-21T14:37:48.720Z,7.87
2017-11-21T14:40:16.183Z,7.90
2017-11-21T14:42:43.655Z,7.81
2017-11-21T14:45:11.138Z,7.80
2017-11-21T14:47:38.618Z,7.80
2017-11-21T14:50:06.083Z,7.85
2017-11-21T14:52:33.714Z,7.83
2017-11-21T14:55:01.517Z,7.80
2017-11-21T14:57:28.990Z,7.92
2017-11-21T14:59:56.451Z,7.86
2017-11-21T15:02:23.924Z,7.94
2017-11-21T15:04:52.044Z,7.82
2017-11-21T15:07:19.518Z,7.88
2017-11-21T15:09:46.986Z,7.84
2017-11-21T15:12:14.450Z,7.80
2017-11-21T15:14:41.923Z,7.83
2017-11-21T15:17:09.467Z,8.72
2017-11-21T15:19:36.963Z,8.24
2017-11-21T15:22:04.534Z,7.88
2017-11-21T15:24:32.013Z,7.79
2017-11-21T15:26:59.459Z,7.72
2017-11-21T15:29:26.913Z,7.71
2017-11-21T15:31:54.402Z,7.77
2017-11-21T15:34:21.869Z,7.69
2017-11-21T15:36:49.340Z,7.63
2017-11-21T15:39:16.794Z,7.70
2017-11-21T15:41:44.267Z,7.69
2017-11-21T15:44:11.744Z,7.63
2017-11-21T15:46:39.218Z,7.67
2017-11-21T15:49:06.698Z,7.68
2017-11-21T15:51:34.166Z,7.61
2017-11-21T15:54:01.621Z,7.68
2017-11-21T15:56:29.105Z,7.62
2017-11-21T15:58:56.566Z,7.64
2017-11-21T16:01:24.096Z,7.67
2017-11-21T16:03:51.561Z,7.51
2017-11-21T16:06:19.054Z,7.53
2017-11-21T16:08:46.539Z,7.50
2017-11-21T16:11:14.024Z,7.52
2017-11-21T16:13:41.479Z,7.52
2017-11-21T16:16:09.003Z,7.45
2017-11-21T16:18:36.458Z,7.45
2017-11-21T16:21:03.923Z,7.46
2017-11-21T16:23:31.458Z,7.42
2017-11-21T16:25:58.986Z,7.47
2017-11-21T16:28:26.462Z,7.48
2017-11-21T16:30:53.965Z,7.48
2017-11-21T16:33:21.426Z,7.49
2017-11-21T16:35:48.902Z,7.47
2017-11-21T16:38:16.386Z,7.51
2017-11-21T16:40:43.915Z,7.51
2017-11-21T16:43:11.395Z,7.51
2017-11-21T16:45:38.895Z,7.58
2017-11-21T16:48:06.394Z,7.55
2017-11-21T16:50:33.858Z,7.58
2017-11-21T16:53:03.183Z,7.60
2017-11-21T16:55:30.769Z,7.61
2017-11-21T16:57:58.269Z,7.58
2017-11-21T17:00:25.733Z,7.67
2017-11-21T17:02:53.216Z,7.64
2017-11-21T17:05:20.683Z,7.66
2017-11-21T17:07:48.197Z,7.68
2017-11-21T17:10:15.767Z,7.71
2017-11-21T17:12:43.235Z,7.72
2017-11-21T17:15:10.725Z,7.79
2017-11-21T17:17:38.228Z,7.81
2017-11-21T17:20:05.687Z,7.90
2017-11-21T17:22:33.177Z,7.87
2017-11-21T17:25:00.638Z,7.98
2017-11-21T17:27:28.150Z,8.09
2017-11-21T17:29:55.630Z,8.13
2017-11-21T17:32:23.097Z,8.11
2017-11-21T17:34:50.574Z,8.08
2017-11-21T17:37:18.068Z,8.09
2017-11-21T17:39:45.546Z,8.16
2017-11-21T17:42:13.031Z,8.17
2017-11-21T17:44:40.527Z,8.13
2017-11-21T17:47:08.001Z,8.08
2017-11-21T17:49:35.486Z,8.18
2017-11-21T17:52:02.947Z,8.12
2017-11-21T17:54:30.429Z,8.16
2017-11-21T17:56:57.919Z,8.10
2017-11-21T17:59:25.382Z,8.18
2017-11-21T18:01:52.862Z,8.18
2017-11-21T18:04:20.319Z,8.18
2017-11-21T18:06:47.805Z,8.16
2017-11-21T18:09:15.291Z,8.16
2017-11-21T18:11:42.775Z,8.17
2017-11-21T18:14:10.261Z,8.21
2017-11-21T18:16:37.723Z,8.19
2017-11-21T18:19:05.188Z,8.16
2017-11-21T18:21:32.671Z,8.17
2017-11-21T18:24:00.156Z,8.12
2017-11-21T18:26:27.977Z,8.11
2017-11-21T18:28:55.450Z,8.14
2017-11-21T18:31:22.940Z,8.08
2017-11-21T18:33:50.432Z,8.10
2017-11-21T18:36:17.902Z,8.13
2017-11-21T18:38:45.377Z,8.05
2017-11-21T18:41:12.867Z,8.06
2017-11-21T18:43:40.511Z,8.11
2017-11-21T18:46:07.970Z,8.15
2017-11-21T18:48:35.426Z,8.09
2017-11-21T18:51:03.180Z,8.16
2017-11-21T18:53:30.700Z,8.23
2017-11-21T18:55:58.190Z,8.19
2017-11-21T18:58:25.654Z,8.20
2017-11-21T19:00:53.114Z,8.22
2017-11-21T19:03:20.587Z,8.23
2017-11-21T19:05:48.084Z,8.25
2017-11-21T19:08:15.562Z,8.38
2017-11-21T19:10:44.003Z,8.40
2017-11-21T19:13:11.484Z,8.37
2017-11-21T19:15:38.941Z,8.31
2017-11-21T19:18:06.406Z,8.37
2017-11-21T19:20:33.909Z,8.33
2017-11-21T19:23:01.447Z,8.38
2017-11-21T19:25:28.946Z,8.32
2017-11-21T19:27:56.427Z,8.27
2017-11-21T19:30:23.899Z,8.24
2017-11-21T19:32:51.361Z,8.19
2017-11-21T19:35:18.876Z,8.17
2017-11-21T19:37:46.359Z,8.16
2017-11-21T19:40:13.869Z,8.25
2017-11-21T19:42:41.330Z,8.10
2017-11-21T19:45:08.828Z,8.16
2017-11-21T19:47:36.316Z,8.08
2017-11-21T19:50:03.819Z,8.11
2017-11-21T19:52:31.285Z,8.06
2017-11-21T19:54:58.753Z,8.11
2017-11-21T19:57:26.225Z,8.08
2017-11-21T19:59:53.719Z,7.98
2017-11-21T20:02:21.317Z,7.91
2017-11-21T20:04:48.791Z,7.80
2017-11-21T20:07:16.250Z,7.68
2017-11-21T20:09:43.742Z,7.71
2017-11-21T20:12:11.251Z,7.81
2017-11-21T20:14:38.728Z,7.82
2017-11-21T20:17:06.202Z,7.86
2017-11-21T20:19:33.672Z,7.84
2017-11-21T20:22:01.342Z,7.79
2017-11-21T20:24:28.811Z,7.69
2017-11-21T20:26:56.294Z,7.68
2017-11-21T20:29:23.762Z,7.73
2017-11-21T20:31:51.261Z,7.72
2017-11-21T20:34:18.735Z,7.75
2017-11-21T20:36:46.202Z,7.74
2017-11-21T20:39:13.696Z,7.70
2017-11-21T20:41:41.187Z,7.74
2017-11-21T20:44:08.661Z,7.68
2017-11-21T20:46:36.138Z,7.69
2017-11-21T20:49:03.602Z,7.62
2017-11-21T20:51:31.099Z,7.64
2017-11-21T20:53:58.573Z,7.69
2017-11-21T20:56:26.068Z,7.59
2017-11-21T20:58:53.527Z,7.47
2017-11-21T21:01:21.895Z,7.50
2017-11-21T21:03:49.358Z,7.55
2017-11-21T21:06:16.852Z,7.47
2017-11-21T21:08:44.334Z,7.42
2017-11-21T21:11:11.799Z,7.60
2017-11-21T21:13:39.270Z,7.54
2017-11-21T21:16:06.751Z,7.64
2017-11-21T21:18:34.241Z,7.56
2017-11-21T21:21:01.723Z,7.43
2017-11-21T21:23:29.208Z,7.48
2017-11-21T21:25:56.693Z,7.48
2017-11-21T21:28:24.156Z,7.43
2017-11-21T21:30:51.614Z,7.46
2017-11-21T21:33:19.101Z,7.52
2017-11-21T21:35:46.566Z,7.49
2017-11-21T21:38:14.028Z,7.46
2017-11-21T21:40:41.505Z,7.49
2017-11-21T21:43:08.965Z,7.41
2017-11-21T21:45:36.430Z,7.43
2017-11-21T21:48:03.923Z,7.49
2017-11-21T21:50:31.390Z,7.46
2017-11-21T21:52:58.866Z,7.41
2017-11-21T21:55:26.328Z,7.39
2017-11-21T21:57:53.815Z,7.46
2017-11-21T22:00:21.271Z,7.34
2017-11-21T22:02:48.771Z,7.42
2017-11-21T22:05:16.230Z,7.33
2017-11-21T22:07:43.699Z,7.45
2017-11-21T22:10:11.192Z,7.34
2017-11-21T22:12:38.664Z,7.32
2017-11-21T22:15:06.146Z,7.42
2017-11-21T22:17:33.651Z,7.39
2017-11-21T22:20:01.115Z,7.32
2017-11-21T22:22:28.612Z,7.33
2017-11-21T22:24:56.086Z,7.33
2017-11-21T22:27:23.547Z,7.26
2017-11-21T22:29:51.006Z,7.23
2017-11-21T22:32:18.501Z,7.10
2017-11-21T22:34:45.958Z,7.00
2017-11-21T22:37:13.442Z,7.02
2017-11-21T22:39:40.908Z,6.93
2017-11-21T22:42:08.380Z,6.99
2017-11-21T22:44:35.854Z,7.03
2017-11-21T22:47:03.305Z,6.94
2017-11-21T22:49:30.792Z,6.68
2017-11-21T22:51:58.250Z,6.88
2017-11-21T22:54:25.738Z,6.84
2017-11-21T22:56:53.229Z,6.90
2017-11-21T22:59:20.687Z,6.83
2017-11-21T23:01:48.164Z,6.82
2017-11-21T23:04:15.619Z,6.75
2017-11-21T23:06:43.101Z,6.68
2017-11-21T23:09:10.585Z,6.77
2017-11-21T23:11:38.051Z,6.73
2017-11-21T23:14:05.553Z,6.49
2017-11-21T23:16:33.021Z,6.55
2017-11-21T23:19:00.479Z,6.54
2017-11-21T23:21:27.963Z,6.55
2017-11-21T23:23:55.423Z,6.50
2017-11-21T23:26:22.906Z,6.45
2017-11-21T23:28:50.396Z,6.46
2017-11-21T23:31:17.867Z,6.41
2017-11-21T23:33:45.356Z,6.40
2017-11-21T23:36:12.818Z,6.39
2017-11-21T23:38:40.281Z,6.37
2017-11-21T23:41:07.774Z,6.32
2017-11-21T23:43:35.233Z,6.36
2017-11-21T23:46:02.695Z,6.26
2017-11-21T23:48:30.175Z,6.29
2017-11-21T23:50:57.640Z,6.22
2017-11-21T23:53:25.127Z,6.17
2017-11-21T23:55:52.583Z,6.04
2017-11-21T23:58:20.071Z,5.97
